Details From EDDS - Stuttgart
To LOWI - Innsbruck Kranebitten
Flight Number -
Tags Decoded
Created
Modified
Stats Distance 127 nm / 235 km
Max Altitude 0 ft / 0 m
Waypoints 4
Social Downloads 3
Likes 0
Share VATSIM

Download

Looking for another format? Having issues loading an existing format? Contact us
Advertisement - Login to hide

Notes

Decoded

Route

EDDS TGO ALGOI LOWI

ID Type Via Altitude Latitude Longitude Leg Dist Tot Dist Heading (true) Name
O EDDS APT - 0 ft / 0 m 48.68573˚ 9.20013˚ - 0 nm - -
TGO VOR - 0 ft / 0 m 48.61841˚ 9.25921˚ 4 nm 4 nm 150° / 150° TANGO VORTAC
ALGOI FIX - 0 ft / 0 m 47.44743˚ 10.48867˚ 85 nm 90 nm 144° / 145° -
O LOWI APT - 0 ft / 0 m 47.25883˚ 11.33091˚ 36 nm 126 nm 108° / 109° -

Altitude Profile

Advertisement - Login to hide

EDDS

Details ICAO EDDS (STR)
Name Stuttgart
Region Germany - Civil
Timezone Europe/Berlin (UTC+1.0)
Stats Elevation 1,273 ft / 388 m (AMSL)
Location 48.689876° 9.221962°
Runways 1
Magnetic Variation 2.522° E

METAR

EDDS 120450Z 25016G26KT 9999 BKN035 03/M02 Q1000

Decode

TAF

TAF TAF EDDS 112300Z 1200/1224 20012KT CAVOK TEMPO 1200/1212 23015G25KT PROB30 TEMPO 1200/1204 SHRA BKN025TCU PROB30 TEMPO 1204/1208 4500 -SHRASN BKN025TCU BECMG 1217/1220 23006KT

Decode

Departure Runways

ID Width Length Bearing (true) Bearing (mag) Surface Threshold Offset Overrun Length
07 148 ft / 45 m 10,950 ft / 3,337 m 73.96° 71.44° Concrete 981 ft / 299 m 157 ft / 48 m
25 148 ft / 45 m 10,950 ft / 3,337 m 253.99° 251.47° Concrete 0 ft / 0 m 157 ft / 48 m

LOWI

Details ICAO LOWI (INN)
Name Innsbruck Kranebitten
Region Austria
Timezone Europe/Vienna (UTC+1.0)
Stats Elevation 1,906 ft / 581 m (AMSL)
Location 47.260226° 11.343967°
Runways 1
Magnetic Variation 3.018° E

METAR

LOWI 120450Z 12005KT 080V150 8000 -RA FEW006 SCT009 BKN013 03/02 Q1000 NOSIG

Decode

TAF

TAF AMD LOWI 120400Z 1204/1224 07005KT 9999 -RA SCT030 BKN050 TX04/1204Z TN02/1300Z TEMPO 1204/1206 4000 RA SCT005 BKN008 TEMPO 1206/1214 27005KT 3000 RASN SCT005 BKN010 BECMG 1213/1215 27008KT 8000 -SN SCT007 BKN020 PROB40 TEMPO 1215/1219 2000 SHSN BKN010

Decode

Destination Runways

ID Width Length Bearing (true) Bearing (mag) Surface Threshold Offset Overrun Length
08 148 ft / 45 m 6,545 ft / 1,995 m 81.02° 78.00° Asphalt 338 ft / 103 m 0 ft / 0 m
26 148 ft / 45 m 6,545 ft / 1,995 m 261.04° 258.02° Asphalt 0 ft / 0 m 0 ft / 0 m

Approach Navaids

Runway Type Ident Frequency Range Bearing (true) Bearing (mag) Slope Elevation
26 Localiser OEV 111.10 MHz 27 nm / 50 km 256.00° 252.98° - 1,906 ft / 581 m (AMSL)
26 Localiser OEJ 109.70 MHz 30 nm / 56 km 69.00° 65.98° - 1,906 ft / 581 m (AMSL)
26 Glidescope OEV 111.10 MHz 18 nm / 33 km 256.00° 252.98° 3.80° 1,911 ft / 582 m (AMSL)
26 DME OEJ 109.70 MHz 30 nm / 56 km - - - 1,906 ft / 581 m (AMSL)
26 DME OEV 111.10 MHz 27 nm / 50 km - - - 1,911 ft / 582 m (AMSL)

Popular Alternatives